sensor_id;sensor_type;location;lat;lon;timestamp;temperature;humidity
9193;DHT22;4631;49.296;10.560;2023-12-14T00:01:34;6.10;99.90
9193;DHT22;4631;49.296;10.560;2023-12-14T00:04:00;6.00;99.90
9193;DHT22;4631;49.296;10.560;2023-12-14T00:06:28;6.00;99.90
9193;DHT22;4631;49.296;10.560;2023-12-14T00:08:54;6.00;99.90
9193;DHT22;4631;49.296;10.560;2023-12-14T00:11:21;6.00;99.90
9193;DHT22;4631;49.296;10.560;2023-12-14T00:13:47;6.00;99.90
9193;DHT22;4631;49.296;10.560;2023-12-14T00:16:15;6.00;99.90
9193;DHT22;4631;49.296;10.560;2023-12-14T00:18:42;6.00;99.90
9193;DHT22;4631;49.296;10.560;2023-12-14T00:21:09;6.00;99.90
9193;DHT22;4631;49.296;10.560;2023-12-14T00:23:36;6.00;99.90
9193;DHT22;4631;49.296;10.560;2023-12-14T00:26:02;5.90;99.90
9193;DHT22;4631;49.296;10.560;2023-12-14T00:28:29;5.90;99.90
9193;DHT22;4631;49.296;10.560;2023-12-14T00:30:56;5.90;99.90
9193;DHT22;4631;49.296;10.560;2023-12-14T00:33:24;5.90;99.90
9193;DHT22;4631;49.296;10.560;2023-12-14T00:35:50;5.90;99.90
9193;DHT22;4631;49.296;10.560;2023-12-14T00:38:17;5.90;99.90
9193;DHT22;4631;49.296;10.560;2023-12-14T00:40:44;6.00;99.90
9193;DHT22;4631;49.296;10.560;2023-12-14T00:43:10;6.00;99.90
9193;DHT22;4631;49.296;10.560;2023-12-14T00:45:37;6.00;99.90
9193;DHT22;4631;49.296;10.560;2023-12-14T00:48:04;6.00;99.90
9193;DHT22;4631;49.296;10.560;2023-12-14T00:50:32;6.00;99.90
9193;DHT22;4631;49.296;10.560;2023-12-14T00:52:58;6.00;99.90
9193;DHT22;4631;49.296;10.560;2023-12-14T00:55:25;5.90;99.90
9193;DHT22;4631;49.296;10.560;2023-12-14T00:57:51;5.90;99.90
9193;DHT22;4631;49.296;10.560;2023-12-14T01:00:18;6.00;99.90
9193;DHT22;4631;49.296;10.560;2023-12-14T01:02:45;6.00;99.90
9193;DHT22;4631;49.296;10.560;2023-12-14T01:05:11;5.90;99.90
9193;DHT22;4631;49.296;10.560;2023-12-14T01:07:39;5.90;99.90
9193;DHT22;4631;49.296;10.560;2023-12-14T01:10:06;6.00;99.90
9193;DHT22;4631;49.296;10.560;2023-12-14T01:12:33;6.00;99.90
9193;DHT22;4631;49.296;10.560;2023-12-14T01:15:00;6.00;99.90
9193;DHT22;4631;49.296;10.560;2023-12-14T01:17:26;6.00;99.90
9193;DHT22;4631;49.296;10.560;2023-12-14T01:19:54;6.00;99.90
9193;DHT22;4631;49.296;10.560;2023-12-14T01:22:20;6.00;99.90
9193;DHT22;4631;49.296;10.560;2023-12-14T01:24:48;6.00;99.90
9193;DHT22;4631;49.296;10.560;2023-12-14T01:27:15;6.00;99.90
9193;DHT22;4631;49.296;10.560;2023-12-14T01:29:41;6.00;99.90
9193;DHT22;4631;49.296;10.560;2023-12-14T01:32:08;6.00;99.90
9193;DHT22;4631;49.296;10.560;2023-12-14T01:34:35;6.00;99.90
9193;DHT22;4631;49.296;10.560;2023-12-14T01:37:01;5.90;99.90
9193;DHT22;4631;49.296;10.560;2023-12-14T01:39:28;6.00;99.90
9193;DHT22;4631;49.296;10.560;2023-12-14T01:41:56;6.00;99.90
9193;DHT22;4631;49.296;10.560;2023-12-14T01:44:23;6.00;99.90
9193;DHT22;4631;49.296;10.560;2023-12-14T01:46:49;6.00;99.90
9193;DHT22;4631;49.296;10.560;2023-12-14T01:49:16;6.00;99.90
9193;DHT22;4631;49.296;10.560;2023-12-14T01:51:43;6.00;99.90
9193;DHT22;4631;49.296;10.560;2023-12-14T01:54:09;6.00;99.90
9193;DHT22;4631;49.296;10.560;2023-12-14T01:56:36;6.00;99.90
9193;DHT22;4631;49.296;10.560;2023-12-14T01:59:04;6.00;99.90
9193;DHT22;4631;49.296;10.560;2023-12-14T02:01:33;6.00;99.90
9193;DHT22;4631;49.296;10.560;2023-12-14T02:04:01;6.00;99.90
9193;DHT22;4631;49.296;10.560;2023-12-14T02:06:28;6.00;99.90
9193;DHT22;4631;49.296;10.560;2023-12-14T02:08:54;6.00;99.90
9193;DHT22;4631;49.296;10.560;2023-12-14T02:11:21;6.00;99.90
9193;DHT22;4631;49.296;10.560;2023-12-14T02:13:47;6.00;99.90
9193;DHT22;4631;49.296;10.560;2023-12-14T02:16:15;6.00;99.90
9193;DHT22;4631;49.296;10.560;2023-12-14T02:18:42;6.00;99.90
9193;DHT22;4631;49.296;10.560;2023-12-14T02:21:09;6.00;99.90
9193;DHT22;4631;49.296;10.560;2023-12-14T02:23:41;6.10;99.90
9193;DHT22;4631;49.296;10.560;2023-12-14T02:26:08;6.00;99.90
9193;DHT22;4631;49.296;10.560;2023-12-14T02:28:35;6.00;99.90
9193;DHT22;4631;49.296;10.560;2023-12-14T02:31:01;6.00;99.90
9193;DHT22;4631;49.296;10.560;2023-12-14T02:33:28;6.00;99.90
9193;DHT22;4631;49.296;10.560;2023-12-14T02:35:54;6.00;99.90
9193;DHT22;4631;49.296;10.560;2023-12-14T02:38:21;6.00;99.90
9193;DHT22;4631;49.296;10.560;2023-12-14T02:40:49;6.00;99.90
9193;DHT22;4631;49.296;10.560;2023-12-14T02:43:17;6.00;99.90
9193;DHT22;4631;49.296;10.560;2023-12-14T02:45:44;6.00;99.90
9193;DHT22;4631;49.296;10.560;2023-12-14T02:48:11;6.00;99.90
9193;DHT22;4631;49.296;10.560;2023-12-14T02:50:37;6.00;99.90
9193;DHT22;4631;49.296;10.560;2023-12-14T02:53:04;6.00;99.90
9193;DHT22;4631;49.296;10.560;2023-12-14T02:55:31;6.00;99.90
9193;DHT22;4631;49.296;10.560;2023-12-14T02:57:59;6.10;99.90
9193;DHT22;4631;49.296;10.560;2023-12-14T03:00:25;6.00;99.90
9193;DHT22;4631;49.296;10.560;2023-12-14T03:02:52;6.00;99.90
9193;DHT22;4631;49.296;10.560;2023-12-14T03:05:19;6.00;99.90
9193;DHT22;4631;49.296;10.560;2023-12-14T03:07:45;6.00;99.90
9193;DHT22;4631;49.296;10.560;2023-12-14T03:10:12;6.10;99.90
9193;DHT22;4631;49.296;10.560;2023-12-14T03:12:38;6.10;99.90
9193;DHT22;4631;49.296;10.560;2023-12-14T03:15:07;6.10;99.90
9193;DHT22;4631;49.296;10.560;2023-12-14T03:17:33;6.10;99.90
9193;DHT22;4631;49.296;10.560;2023-12-14T03:20:00;6.10;99.90
9193;DHT22;4631;49.296;10.560;2023-12-14T03:22:28;6.10;99.90
9193;DHT22;4631;49.296;10.560;2023-12-14T03:24:55;6.10;99.90
9193;DHT22;4631;49.296;10.560;2023-12-14T03:27:21;6.10;99.90
9193;DHT22;4631;49.296;10.560;2023-12-14T03:29:49;6.10;99.90
9193;DHT22;4631;49.296;10.560;2023-12-14T03:32:17;6.10;99.90
9193;DHT22;4631;49.296;10.560;2023-12-14T03:34:44;6.10;99.90
9193;DHT22;4631;49.296;10.560;2023-12-14T03:37:11;6.10;99.90
9193;DHT22;4631;49.296;10.560;2023-12-14T03:39:38;6.10;99.90
9193;DHT22;4631;49.296;10.560;2023-12-14T03:42:04;6.10;99.90
9193;DHT22;4631;49.296;10.560;2023-12-14T03:44:31;6.10;99.90
9193;DHT22;4631;49.296;10.560;2023-12-14T03:46:58;6.10;99.90
9193;DHT22;4631;49.296;10.560;2023-12-14T03:49:26;6.10;99.90
9193;DHT22;4631;49.296;10.560;2023-12-14T03:51:53;6.00;99.90
9193;DHT22;4631;49.296;10.560;2023-12-14T03:54:20;6.10;99.90
9193;DHT22;4631;49.296;10.560;2023-12-14T03:56:46;6.10;99.90
9193;DHT22;4631;49.296;10.560;2023-12-14T03:59:13;6.10;99.90
9193;DHT22;4631;49.296;10.560;2023-12-14T04:01:39;6.10;99.90
9193;DHT22;4631;49.296;10.560;2023-12-14T04:04:06;6.10;99.90
9193;DHT22;4631;49.296;10.560;2023-12-14T04:06:34;6.10;99.90
9193;DHT22;4631;49.296;10.560;2023-12-14T04:09:01;6.10;99.90
9193;DHT22;4631;49.296;10.560;2023-12-14T04:11:27;6.00;99.90
9193;DHT22;4631;49.296;10.560;2023-12-14T04:13:55;6.00;99.90
9193;DHT22;4631;49.296;10.560;2023-12-14T04:16:21;6.00;99.90
9193;DHT22;4631;49.296;10.560;2023-12-14T04:18:48;6.00;99.90
9193;DHT22;4631;49.296;10.560;2023-12-14T04:21:14;6.00;99.90
9193;DHT22;4631;49.296;10.560;2023-12-14T04:23:42;6.00;99.90
9193;DHT22;4631;49.296;10.560;2023-12-14T04:26:11;5.90;99.90
9193;DHT22;4631;49.296;10.560;2023-12-14T04:28:39;5.90;99.90
9193;DHT22;4631;49.296;10.560;2023-12-14T04:31:05;5.90;99.90
9193;DHT22;4631;49.296;10.560;2023-12-14T04:33:32;5.90;99.90
9193;DHT22;4631;49.296;10.560;2023-12-14T04:35:58;5.90;99.90
9193;DHT22;4631;49.296;10.560;2023-12-14T04:38:25;5.80;99.90
9193;DHT22;4631;49.296;10.560;2023-12-14T04:40:53;5.80;99.90
9193;DHT22;4631;49.296;10.560;2023-12-14T04:43:19;5.80;99.90
9193;DHT22;4631;49.296;10.560;2023-12-14T04:45:46;5.70;99.90
9193;DHT22;4631;49.296;10.560;2023-12-14T04:48:13;5.80;99.90
9193;DHT22;4631;49.296;10.560;2023-12-14T04:50:39;5.70;99.90
9193;DHT22;4631;49.296;10.560;2023-12-14T04:53:06;5.70;99.90
9193;DHT22;4631;49.296;10.560;2023-12-14T04:55:33;5.70;99.90
9193;DHT22;4631;49.296;10.560;2023-12-14T04:58:01;5.80;99.90
9193;DHT22;4631;49.296;10.560;2023-12-14T05:00:28;5.80;99.90
9193;DHT22;4631;49.296;10.560;2023-12-14T05:02:54;5.80;99.90
9193;DHT22;4631;49.296;10.560;2023-12-14T05:05:21;5.70;99.90
9193;DHT22;4631;49.296;10.560;2023-12-14T05:07:48;5.70;99.90
9193;DHT22;4631;49.296;10.560;2023-12-14T05:10:14;5.70;99.90
9193;DHT22;4631;49.296;10.560;2023-12-14T05:12:41;5.70;99.90
9193;DHT22;4631;49.296;10.560;2023-12-14T05:15:10;5.70;99.90
9193;DHT22;4631;49.296;10.560;2023-12-14T05:17:36;5.70;99.90
9193;DHT22;4631;49.296;10.560;2023-12-14T05:20:03;5.70;99.90
9193;DHT22;4631;49.296;10.560;2023-12-14T05:22:30;5.70;99.90
9193;DHT22;4631;49.296;10.560;2023-12-14T05:24:57;5.80;99.90
9193;DHT22;4631;49.296;10.560;2023-12-14T05:27:23;5.80;99.90
9193;DHT22;4631;49.296;10.560;2023-12-14T05:29:51;5.80;99.90
9193;DHT22;4631;49.296;10.560;2023-12-14T05:32:19;5.80;99.90
9193;DHT22;4631;49.296;10.560;2023-12-14T05:34:45;5.80;99.90
9193;DHT22;4631;49.296;10.560;2023-12-14T05:37:13;5.80;99.90
9193;DHT22;4631;49.296;10.560;2023-12-14T05:39:40;5.80;99.90
9193;DHT22;4631;49.296;10.560;2023-12-14T05:42:07;5.80;99.90
9193;DHT22;4631;49.296;10.560;2023-12-14T05:44:34;5.80;99.90
9193;DHT22;4631;49.296;10.560;2023-12-14T05:47:00;5.80;99.90
9193;DHT22;4631;49.296;10.560;2023-12-14T05:49:28;5.70;99.90
9193;DHT22;4631;49.296;10.560;2023-12-14T05:51:55;5.70;99.90
9193;DHT22;4631;49.296;10.560;2023-12-14T05:54:22;5.70;99.90
9193;DHT22;4631;49.296;10.560;2023-12-14T05:56:49;5.70;99.90
9193;DHT22;4631;49.296;10.560;2023-12-14T05:59:15;5.70;99.90
9193;DHT22;4631;49.296;10.560;2023-12-14T06:01:42;5.70;99.90
9193;DHT22;4631;49.296;10.560;2023-12-14T06:04:09;5.70;99.90
9193;DHT22;4631;49.296;10.560;2023-12-14T06:06:38;5.70;99.90
9193;DHT22;4631;49.296;10.560;2023-12-14T06:09:05;5.70;99.90
9193;DHT22;4631;49.296;10.560;2023-12-14T06:11:32;5.70;99.90
9193;DHT22;4631;49.296;10.560;2023-12-14T06:13:59;5.70;99.90
9193;DHT22;4631;49.296;10.560;2023-12-14T06:16:26;5.70;99.90
9193;DHT22;4631;49.296;10.560;2023-12-14T06:18:52;5.70;99.90
9193;DHT22;4631;49.296;10.560;2023-12-14T06:21:19;5.60;99.90
9193;DHT22;4631;49.296;10.560;2023-12-14T06:23:47;5.70;99.90
9193;DHT22;4631;49.296;10.560;2023-12-14T06:26:13;5.70;99.90
9193;DHT22;4631;49.296;10.560;2023-12-14T06:28:40;5.70;99.90
9193;DHT22;4631;49.296;10.560;2023-12-14T06:31:11;5.70;99.90
9193;DHT22;4631;49.296;10.560;2023-12-14T06:33:38;5.60;99.90
9193;DHT22;4631;49.296;10.560;2023-12-14T06:36:05;5.60;99.90
9193;DHT22;4631;49.296;10.560;2023-12-14T06:38:31;5.50;99.90
9193;DHT22;4631;49.296;10.560;2023-12-14T06:41:00;5.50;99.90
9193;DHT22;4631;49.296;10.560;2023-12-14T06:43:27;5.40;99.90
9193;DHT22;4631;49.296;10.560;2023-12-14T06:45:54;5.40;99.90
9193;DHT22;4631;49.296;10.560;2023-12-14T06:48:20;5.40;99.90
9193;DHT22;4631;49.296;10.560;2023-12-14T06:50:47;5.40;99.90
9193;DHT22;4631;49.296;10.560;2023-12-14T06:53:14;5.30;99.90
9193;DHT22;4631;49.296;10.560;2023-12-14T06:55:41;5.30;99.90
9193;DHT22;4631;49.296;10.560;2023-12-14T06:58:09;5.20;99.90
9193;DHT22;4631;49.296;10.560;2023-12-14T07:00:37;5.20;99.90
9193;DHT22;4631;49.296;10.560;2023-12-14T07:03:03;5.20;99.90
9193;DHT22;4631;49.296;10.560;2023-12-14T07:05:30;5.20;99.90
9193;DHT22;4631;49.296;10.560;2023-12-14T07:07:57;5.20;99.90
9193;DHT22;4631;49.296;10.560;2023-12-14T07:10:24;5.20;99.90
9193;DHT22;4631;49.296;10.560;2023-12-14T07:12:51;5.20;99.90
9193;DHT22;4631;49.296;10.560;2023-12-14T07:15:19;5.20;99.90
9193;DHT22;4631;49.296;10.560;2023-12-14T07:17:45;5.20;99.90
9193;DHT22;4631;49.296;10.560;2023-12-14T07:20:12;5.20;99.90
9193;DHT22;4631;49.296;10.560;2023-12-14T07:22:39;5.20;99.90
9193;DHT22;4631;49.296;10.560;2023-12-14T07:25:06;5.20;99.90
9193;DHT22;4631;49.296;10.560;2023-12-14T07:27:32;5.30;99.90
9193;DHT22;4631;49.296;10.560;2023-12-14T07:29:59;5.30;99.90
9193;DHT22;4631;49.296;10.560;2023-12-14T07:32:27;5.30;99.90
9193;DHT22;4631;49.296;10.560;2023-12-14T07:34:54;5.30;99.90
9193;DHT22;4631;49.296;10.560;2023-12-14T07:37:20;5.30;99.90
9193;DHT22;4631;49.296;10.560;2023-12-14T07:39:47;5.30;99.90
9193;DHT22;4631;49.296;10.560;2023-12-14T07:42:13;5.30;99.90
9193;DHT22;4631;49.296;10.560;2023-12-14T07:44:44;5.40;99.90
9193;DHT22;4631;49.296;10.560;2023-12-14T07:47:11;5.40;99.90
9193;DHT22;4631;49.296;10.560;2023-12-14T07:49:39;5.40;99.90
9193;DHT22;4631;49.296;10.560;2023-12-14T07:52:06;5.40;99.90
9193;DHT22;4631;49.296;10.560;2023-12-14T07:54:33;5.40;99.90
9193;DHT22;4631;49.296;10.560;2023-12-14T07:56:59;5.40;99.90
9193;DHT22;4631;49.296;10.560;2023-12-14T07:59:26;5.40;99.90
9193;DHT22;4631;49.296;10.560;2023-12-14T08:01:52;5.30;99.90
9193;DHT22;4631;49.296;10.560;2023-12-14T08:04:19;5.30;99.90
9193;DHT22;4631;49.296;10.560;2023-12-14T08:06:47;5.30;99.90
9193;DHT22;4631;49.296;10.560;2023-12-14T08:09:13;5.20;99.90
9193;DHT22;4631;49.296;10.560;2023-12-14T08:11:40;5.20;99.90
9193;DHT22;4631;49.296;10.560;2023-12-14T08:14:07;5.20;99.90
9193;DHT22;4631;49.296;10.560;2023-12-14T08:16:33;5.20;99.90
9193;DHT22;4631;49.296;10.560;2023-12-14T08:19:00;5.10;99.90
9193;DHT22;4631;49.296;10.560;2023-12-14T08:21:26;5.10;99.90
9193;DHT22;4631;49.296;10.560;2023-12-14T08:23:54;5.20;99.90
9193;DHT22;4631;49.296;10.560;2023-12-14T08:26:21;5.20;99.90
9193;DHT22;4631;49.296;10.560;2023-12-14T08:28:48;5.20;99.90
9193;DHT22;4631;49.296;10.560;2023-12-14T08:31:14;5.20;99.90
9193;DHT22;4631;49.296;10.560;2023-12-14T08:33:41;5.20;99.90
9193;DHT22;4631;49.296;10.560;2023-12-14T08:36:08;5.20;99.90
9193;DHT22;4631;49.296;10.560;2023-12-14T08:38:34;5.20;99.90
9193;DHT22;4631;49.296;10.560;2023-12-14T08:41:02;5.30;99.90
9193;DHT22;4631;49.296;10.560;2023-12-14T08:43:29;5.30;99.90
9193;DHT22;4631;49.296;10.560;2023-12-14T08:45:56;5.40;99.90
9193;DHT22;4631;49.296;10.560;2023-12-14T08:48:22;5.30;99.90
9193;DHT22;4631;49.296;10.560;2023-12-14T08:50:49;5.40;99.90
9193;DHT22;4631;49.296;10.560;2023-12-14T08:53:15;5.40;99.90
9193;DHT22;4631;49.296;10.560;2023-12-14T08:55:43;5.40;99.90
9193;DHT22;4631;49.296;10.560;2023-12-14T08:58:11;5.50;99.90
9193;DHT22;4631;49.296;10.560;2023-12-14T09:00:38;5.50;99.90
9193;DHT22;4631;49.296;10.560;2023-12-14T09:03:04;5.60;99.90
9193;DHT22;4631;49.296;10.560;2023-12-14T09:05:31;5.60;99.90
9193;DHT22;4631;49.296;10.560;2023-12-14T09:07:58;5.60;99.90
9193;DHT22;4631;49.296;10.560;2023-12-14T09:10:24;5.60;99.90
9193;DHT22;4631;49.296;10.560;2023-12-14T09:12:51;5.70;99.90
9193;DHT22;4631;49.296;10.560;2023-12-14T09:15:19;5.70;99.90
9193;DHT22;4631;49.296;10.560;2023-12-14T09:17:46;5.80;99.90
9193;DHT22;4631;49.296;10.560;2023-12-14T09:20:13;5.80;99.90
9193;DHT22;4631;49.296;10.560;2023-12-14T09:22:39;5.80;99.90
9193;DHT22;4631;49.296;10.560;2023-12-14T09:25:07;5.90;99.90
9193;DHT22;4631;49.296;10.560;2023-12-14T09:27:34;6.00;99.90
9193;DHT22;4631;49.296;10.560;2023-12-14T09:30:01;6.00;99.90
9193;DHT22;4631;49.296;10.560;2023-12-14T09:32:29;6.00;99.90
9193;DHT22;4631;49.296;10.560;2023-12-14T09:34:55;6.00;99.90
9193;DHT22;4631;49.296;10.560;2023-12-14T09:37:22;6.10;99.90
9193;DHT22;4631;49.296;10.560;2023-12-14T09:39:49;6.10;99.90
9193;DHT22;4631;49.296;10.560;2023-12-14T09:42:16;6.20;99.90
9193;DHT22;4631;49.296;10.560;2023-12-14T09:44:44;6.30;99.90
9193;DHT22;4631;49.296;10.560;2023-12-14T09:47:11;6.30;99.90
9193;DHT22;4631;49.296;10.560;2023-12-14T09:49:39;6.40;99.90
9193;DHT22;4631;49.296;10.560;2023-12-14T09:52:08;6.40;99.90
9193;DHT22;4631;49.296;10.560;2023-12-14T09:54:35;6.50;99.90
9193;DHT22;4631;49.296;10.560;2023-12-14T09:57:01;6.60;99.90
9193;DHT22;4631;49.296;10.560;2023-12-14T09:59:28;6.70;99.90
9193;DHT22;4631;49.296;10.560;2023-12-14T10:02:00;6.70;99.90
9193;DHT22;4631;49.296;10.560;2023-12-14T10:04:35;6.80;99.90
9193;DHT22;4631;49.296;10.560;2023-12-14T10:07:03;6.80;99.90
9193;DHT22;4631;49.296;10.560;2023-12-14T10:09:32;6.90;99.90
9193;DHT22;4631;49.296;10.560;2023-12-14T10:12:01;6.90;99.90
9193;DHT22;4631;49.296;10.560;2023-12-14T10:14:29;6.90;99.90
9193;DHT22;4631;49.296;10.560;2023-12-14T10:16:55;7.00;99.90
9193;DHT22;4631;49.296;10.560;2023-12-14T10:19:22;7.00;99.90
9193;DHT22;4631;49.296;10.560;2023-12-14T10:21:49;7.00;99.90
9193;DHT22;4631;49.296;10.560;2023-12-14T10:24:17;7.10;99.90
9193;DHT22;4631;49.296;10.560;2023-12-14T10:26:45;7.20;99.90
9193;DHT22;4631;49.296;10.560;2023-12-14T10:29:11;7.20;99.90
9193;DHT22;4631;49.296;10.560;2023-12-14T10:31:38;7.30;99.90
9193;DHT22;4631;49.296;10.560;2023-12-14T10:34:05;7.30;99.90
9193;DHT22;4631;49.296;10.560;2023-12-14T10:36:32;7.40;99.90
9193;DHT22;4631;49.296;10.560;2023-12-14T10:38:59;7.40;99.90
9193;DHT22;4631;49.296;10.560;2023-12-14T10:41:27;7.30;99.90
9193;DHT22;4631;49.296;10.560;2023-12-14T10:43:57;7.40;99.90
9193;DHT22;4631;49.296;10.560;2023-12-14T10:46:25;7.40;99.90
9193;DHT22;4631;49.296;10.560;2023-12-14T10:48:52;7.40;99.90
9193;DHT22;4631;49.296;10.560;2023-12-14T10:51:20;7.40;99.90
9193;DHT22;4631;49.296;10.560;2023-12-14T10:53:47;7.40;99.90
9193;DHT22;4631;49.296;10.560;2023-12-14T10:56:14;7.40;99.90
9193;DHT22;4631;49.296;10.560;2023-12-14T10:58:47;7.40;99.90
9193;DHT22;4631;49.296;10.560;2023-12-14T11:01:15;7.40;99.90
9193;DHT22;4631;49.296;10.560;2023-12-14T11:03:42;7.50;99.90
9193;DHT22;4631;49.296;10.560;2023-12-14T11:06:25;7.60;99.90
9193;DHT22;4631;49.296;10.560;2023-12-14T11:08:55;7.60;99.90
9193;DHT22;4631;49.296;10.560;2023-12-14T11:11:22;7.60;99.90
9193;DHT22;4631;49.296;10.560;2023-12-14T11:13:52;7.60;99.90
9193;DHT22;4631;49.296;10.560;2023-12-14T11:16:19;7.60;99.90
9193;DHT22;4631;49.296;10.560;2023-12-14T11:18:46;7.70;99.90
9193;DHT22;4631;49.296;10.560;2023-12-14T11:21:17;7.60;99.90
9193;DHT22;4631;49.296;10.560;2023-12-14T11:23:44;7.60;99.90
9193;DHT22;4631;49.296;10.560;2023-12-14T11:26:11;7.60;99.90
9193;DHT22;4631;49.296;10.560;2023-12-14T11:28:47;7.50;99.90
9193;DHT22;4631;49.296;10.560;2023-12-14T11:31:16;7.50;99.90
9193;DHT22;4631;49.296;10.560;2023-12-14T11:33:42;7.50;99.90
9193;DHT22;4631;49.296;10.560;2023-12-14T11:36:10;7.40;99.90
9193;DHT22;4631;49.296;10.560;2023-12-14T11:38:37;7.40;99.90
9193;DHT22;4631;49.296;10.560;2023-12-14T11:41:03;7.50;99.90
9193;DHT22;4631;49.296;10.560;2023-12-14T11:43:36;7.40;99.90
9193;DHT22;4631;49.296;10.560;2023-12-14T11:46:04;7.40;99.90
9193;DHT22;4631;49.296;10.560;2023-12-14T11:48:32;7.40;99.90
9193;DHT22;4631;49.296;10.560;2023-12-14T11:50:59;7.40;99.90
9193;DHT22;4631;49.296;10.560;2023-12-14T11:53:26;7.40;99.90
9193;DHT22;4631;49.296;10.560;2023-12-14T11:55:52;7.50;99.90
9193;DHT22;4631;49.296;10.560;2023-12-14T11:58:19;7.50;99.90
9193;DHT22;4631;49.296;10.560;2023-12-14T12:00:46;7.50;99.90
9193;DHT22;4631;49.296;10.560;2023-12-14T12:03:13;7.50;99.90
9193;DHT22;4631;49.296;10.560;2023-12-14T12:05:42;7.50;99.90
9193;DHT22;4631;49.296;10.560;2023-12-14T12:08:09;7.40;99.90
9193;DHT22;4631;49.296;10.560;2023-12-14T12:10:36;7.50;99.90
9193;DHT22;4631;49.296;10.560;2023-12-14T12:13:03;7.50;99.90
9193;DHT22;4631;49.296;10.560;2023-12-14T12:15:31;7.40;99.90
9193;DHT22;4631;49.296;10.560;2023-12-14T12:17:58;7.40;99.90
9193;DHT22;4631;49.296;10.560;2023-12-14T12:20:25;7.40;99.90
9193;DHT22;4631;49.296;10.560;2023-12-14T12:22:53;7.40;99.90
9193;DHT22;4631;49.296;10.560;2023-12-14T12:25:20;7.40;99.90
9193;DHT22;4631;49.296;10.560;2023-12-14T12:27:48;7.40;99.90
9193;DHT22;4631;49.296;10.560;2023-12-14T12:30:14;7.30;99.90
9193;DHT22;4631;49.296;10.560;2023-12-14T12:32:41;7.30;99.90
9193;DHT22;4631;49.296;10.560;2023-12-14T12:35:08;7.30;99.90
9193;DHT22;4631;49.296;10.560;2023-12-14T12:37:35;7.20;99.90
9193;DHT22;4631;49.296;10.560;2023-12-14T12:40:04;7.20;99.90
9193;DHT22;4631;49.296;10.560;2023-12-14T12:42:30;7.20;99.90
9193;DHT22;4631;49.296;10.560;2023-12-14T12:44:57;7.20;99.90
9193;DHT22;4631;49.296;10.560;2023-12-14T12:47:24;7.20;99.90
9193;DHT22;4631;49.296;10.560;2023-12-14T12:49:50;7.30;99.90
9193;DHT22;4631;49.296;10.560;2023-12-14T12:52:17;7.20;99.90
9193;DHT22;4631;49.296;10.560;2023-12-14T12:54:44;7.30;99.90
9193;DHT22;4631;49.296;10.560;2023-12-14T12:57:12;7.20;99.90
9193;DHT22;4631;49.296;10.560;2023-12-14T12:59:38;7.20;99.90
9193;DHT22;4631;49.296;10.560;2023-12-14T13:02:05;7.20;99.90
9193;DHT22;4631;49.296;10.560;2023-12-14T13:04:32;7.20;99.90
9193;DHT22;4631;49.296;10.560;2023-12-14T13:06:58;7.20;99.90
9193;DHT22;4631;49.296;10.560;2023-12-14T13:09:27;7.10;99.90
9193;DHT22;4631;49.296;10.560;2023-12-14T13:11:54;7.10;99.90
9193;DHT22;4631;49.296;10.560;2023-12-14T13:14:22;7.10;99.90
9193;DHT22;4631;49.296;10.560;2023-12-14T13:16:48;7.10;99.90
9193;DHT22;4631;49.296;10.560;2023-12-14T13:19:15;7.10;99.90
9193;DHT22;4631;49.296;10.560;2023-12-14T13:21:42;7.10;99.90
9193;DHT22;4631;49.296;10.560;2023-12-14T13:24:08;7.10;99.90
9193;DHT22;4631;49.296;10.560;2023-12-14T13:26:35;7.10;99.90
9193;DHT22;4631;49.296;10.560;2023-12-14T13:29:01;7.10;99.90
9193;DHT22;4631;49.296;10.560;2023-12-14T13:31:30;7.10;99.90
9193;DHT22;4631;49.296;10.560;2023-12-14T13:33:56;7.00;99.90
9193;DHT22;4631;49.296;10.560;2023-12-14T13:36:23;7.00;99.90
9193;DHT22;4631;49.296;10.560;2023-12-14T13:38:50;7.00;99.90
9193;DHT22;4631;49.296;10.560;2023-12-14T13:41:16;6.90;99.90
9193;DHT22;4631;49.296;10.560;2023-12-14T13:43:43;6.90;99.90
9193;DHT22;4631;49.296;10.560;2023-12-14T13:46:11;6.90;99.90
9193;DHT22;4631;49.296;10.560;2023-12-14T13:48:39;6.90;99.90
9193;DHT22;4631;49.296;10.560;2023-12-14T13:51:06;6.90;99.90
9193;DHT22;4631;49.296;10.560;2023-12-14T13:53:34;6.90;99.90
9193;DHT22;4631;49.296;10.560;2023-12-14T13:56:00;6.90;99.90
9193;DHT22;4631;49.296;10.560;2023-12-14T13:58:28;6.90;99.90
9193;DHT22;4631;49.296;10.560;2023-12-14T14:00:54;6.80;99.90
9193;DHT22;4631;49.296;10.560;2023-12-14T14:03:21;6.90;99.90
9193;DHT22;4631;49.296;10.560;2023-12-14T14:05:49;6.90;99.90
9193;DHT22;4631;49.296;10.560;2023-12-14T14:08:16;6.90;99.90
9193;DHT22;4631;49.296;10.560;2023-12-14T14:10:42;6.90;99.90
9193;DHT22;4631;49.296;10.560;2023-12-14T14:13:09;6.90;99.90
9193;DHT22;4631;49.296;10.560;2023-12-14T14:15:36;6.90;99.90
9193;DHT22;4631;49.296;10.560;2023-12-14T14:18:02;6.90;99.90
9193;DHT22;4631;49.296;10.560;2023-12-14T14:20:29;6.80;99.90
9193;DHT22;4631;49.296;10.560;2023-12-14T14:22:57;6.80;99.90
9193;DHT22;4631;49.296;10.560;2023-12-14T14:25:24;6.80;99.90
9193;DHT22;4631;49.296;10.560;2023-12-14T14:27:51;6.80;99.90
9193;DHT22;4631;49.296;10.560;2023-12-14T14:30:18;6.80;99.90
9193;DHT22;4631;49.296;10.560;2023-12-14T14:32:44;6.70;99.90
9193;DHT22;4631;49.296;10.560;2023-12-14T14:35:11;6.70;99.90
9193;DHT22;4631;49.296;10.560;2023-12-14T14:37:38;6.60;99.90
9193;DHT22;4631;49.296;10.560;2023-12-14T14:40:07;6.60;99.90
9193;DHT22;4631;49.296;10.560;2023-12-14T14:42:34;6.50;99.90
9193;DHT22;4631;49.296;10.560;2023-12-14T14:45:00;6.50;99.90
9193;DHT22;4631;49.296;10.560;2023-12-14T14:47:27;6.50;99.90
9193;DHT22;4631;49.296;10.560;2023-12-14T14:49:54;6.40;99.90
9193;DHT22;4631;49.296;10.560;2023-12-14T14:52:22;6.40;99.90
9193;DHT22;4631;49.296;10.560;2023-12-14T14:54:49;6.40;99.90
9193;DHT22;4631;49.296;10.560;2023-12-14T14:57:17;6.40;99.90
9193;DHT22;4631;49.296;10.560;2023-12-14T14:59:44;6.40;99.90
9193;DHT22;4631;49.296;10.560;2023-12-14T15:02:11;6.40;99.90
9193;DHT22;4631;49.296;10.560;2023-12-14T15:04:37;6.40;99.90
9193;DHT22;4631;49.296;10.560;2023-12-14T15:07:04;6.40;99.90
9193;DHT22;4631;49.296;10.560;2023-12-14T15:09:30;6.30;99.90
9193;DHT22;4631;49.296;10.560;2023-12-14T15:11:57;6.30;99.90
9193;DHT22;4631;49.296;10.560;2023-12-14T15:14:25;6.30;99.90
9193;DHT22;4631;49.296;10.560;2023-12-14T15:16:52;6.40;99.90
9193;DHT22;4631;49.296;10.560;2023-12-14T15:19:19;6.30;99.90
9193;DHT22;4631;49.296;10.560;2023-12-14T15:21:45;6.30;99.90
9193;DHT22;4631;49.296;10.560;2023-12-14T15:24:12;6.30;99.90
9193;DHT22;4631;49.296;10.560;2023-12-14T15:26:40;6.30;99.90
9193;DHT22;4631;49.296;10.560;2023-12-14T15:29:07;6.20;99.90
9193;DHT22;4631;49.296;10.560;2023-12-14T15:31:35;6.30;99.90
9193;DHT22;4631;49.296;10.560;2023-12-14T15:34:01;6.30;99.90
9193;DHT22;4631;49.296;10.560;2023-12-14T15:36:28;6.30;99.90
9193;DHT22;4631;49.296;10.560;2023-12-14T15:38:55;6.30;99.90
9193;DHT22;4631;49.296;10.560;2023-12-14T15:41:22;6.30;99.90
9193;DHT22;4631;49.296;10.560;2023-12-14T15:43:49;6.20;99.90
9193;DHT22;4631;49.296;10.560;2023-12-14T15:46:15;6.20;99.90
9193;DHT22;4631;49.296;10.560;2023-12-14T15:48:43;6.20;99.90
9193;DHT22;4631;49.296;10.560;2023-12-14T15:51:10;6.20;99.90
9193;DHT22;4631;49.296;10.560;2023-12-14T15:53:37;6.10;99.90
9193;DHT22;4631;49.296;10.560;2023-12-14T15:56:04;6.10;99.90
9193;DHT22;4631;49.296;10.560;2023-12-14T15:58:30;6.10;99.90
9193;DHT22;4631;49.296;10.560;2023-12-14T16:00:57;6.20;99.90